aviador You're here:

GMMX Decoded Metar

MARRAKECH in MOROCCO
Report Time2018-04-27 02:30:00
UTC Time2018-04-27 03:04:33
Flight Rules vfr VFR
Wind080° at 03 kt
W.Decomp.*RWY 10: 2.9 kt HW 0.9 kt LCW
W.Rank080° ranks 14
Current wind is below 080° avg. (4.9)
Visibility9999 m
Phenomena:N/A
Clouds:N/A
Expected CloudBase > 1,600 ft AGL from Temp-Dew spread
CeilingNone
Temp16°C (ISA +4)
Dew Point12°C (77% RH)
AAT15.5°C
QNH1015 hPa
Density Alt2,129 ft
Elevation1,529 ft
Report Wrong Elevation
Raw Report
GMMX 270230Z 08003KT CAVOK 16/12 Q1015 NOSIG=

Extra information for GMMX:More info

Metar Taf Metar & Taf Last 4 Metars F.Rules Stats Wind Profile Meteogram Temp Stats Airport Information Weather charts Add Link Nearby VenuesMetar ALERT Operation Metar Decoded Social comments